Time;durP1;ratioP1;P1;durP2;ratioP2;P2;SDS_P1;SDS_P2;PMS_P1;PMS_P2;Temp;Humidity;BMP_temperature;BMP_pressure;BME280_temperature;BME280_humidity;BME280_pressure;Samples;Min_cycle;Max_cycle;Signal;HPM_P1;HPM_P2
2024/03/24 00:02:22;;;;;;;6.30;5.50;;;;;;;6.33;66.66;95852.03;5049488;28;20205;-85
2024/03/24 00:04:49;;;;;;;7.53;5.30;;;;;;;6.37;66.86;95849.63;5054067;28;20209;-85
2024/03/24 00:07:17;;;;;;;5.63;4.87;;;;;;;6.48;66.28;95834.47;5053514;28;20289;-85
2024/03/24 00:09:43;;;;;;;7.20;5.17;;;;;;;6.64;65.87;95827.97;5053472;28;20770;-85
2024/03/24 00:12:11;;;;;;;5.77;5.17;;;;;;;6.63;66.12;95825.63;5053427;28;20202;-86
2024/03/24 00:14:37;;;;;;;6.63;4.67;;;;;;;6.63;66.45;95826.41;5053335;28;20284;-86
2024/03/24 00:17:04;;;;;;;5.03;4.23;;;;;;;6.58;65.86;95827.25;5053208;28;20308;-86
2024/03/24 00:19:30;;;;;;;4.40;3.83;;;;;;;6.64;65.85;95819.25;5053011;28;20209;-85
2024/03/24 00:22:00;;;;;;;5.50;4.57;;;;;;;6.59;66.06;95822.75;5053027;28;20201;-86
2024/03/24 00:24:29;;;;;;;6.90;4.90;;;;;;;6.41;66.80;95821.59;5053570;28;20202;-86
2024/03/24 00:26:55;;;;;;;5.70;4.90;;;;;;;5.99;66.94;95785.19;5052289;28;20205;-85
2024/03/24 00:29:21;;;;;;;5.47;4.10;;;;;;;6.20;67.67;95818.34;5053576;28;20286;-86
2024/03/24 00:31:48;;;;;;;5.87;4.83;;;;;;;6.00;68.02;95806.06;5053316;28;20600;-85
2024/03/24 00:34:14;;;;;;;5.00;4.10;;;;;;;5.89;68.62;95817.75;5053119;28;20205;-86
2024/03/24 00:36:41;;;;;;;12.87;5.40;;;;;;;6.10;67.28;95803.34;5053373;28;20217;-86
2024/03/24 00:39:08;;;;;;;6.13;5.20;;;;;;;6.23;66.97;95803.75;5051182;28;20190;-85
2024/03/24 00:41:35;;;;;;;4.70;4.07;;;;;;;6.07;66.32;95776.69;5051052;28;20198;-86
2024/03/24 00:44:00;;;;;;;6.23;5.63;;;;;;;6.12;66.59;95809.16;5042366;28;20244;-86
2024/03/24 00:46:27;;;;;;;6.57;5.27;;;;;;;5.84;66.70;95783.44;5051854;28;20198;-85
2024/03/24 00:48:53;;;;;;;6.03;5.43;;;;;;;5.97;67.06;95800.53;5052987;28;20270;-85
2024/03/24 00:51:20;;;;;;;4.97;4.50;;;;;;;5.98;66.63;95799.47;5052701;28;20668;-85
2024/03/24 00:53:46;;;;;;;7.40;4.50;;;;;;;5.87;66.77;95793.44;5053139;28;20190;-86
2024/03/24 00:56:14;;;;;;;5.03;4.43;;;;;;;5.94;66.84;95785.25;5052413;28;20225;-86
2024/03/24 00:59:04;;;;;;;4.60;4.10;;;;;;;6.09;67.24;95785.13;5052719;28;20232;-85
2024/03/24 01:01:31;;;;;;;4.60;4.20;;;;;;;6.07;67.23;95782.75;5051858;28;20198;-86
2024/03/24 01:03:57;;;;;;;5.90;4.83;;;;;;;5.72;67.71;95756.59;5052447;28;20208;-86
2024/03/24 01:06:24;;;;;;;5.37;4.70;;;;;;;5.66;69.40;95789.38;5052335;28;20205;-85
2024/03/24 01:08:50;;;;;;;5.93;5.33;;;;;;;5.58;69.55;95783.59;5052461;28;20252;-85
2024/03/24 01:11:18;;;;;;;7.67;6.20;;;;;;;5.63;69.16;95786.22;5051816;28;20205;-85
2024/03/24 01:13:45;;;;;;;8.37;5.30;;;;;;;5.66;69.46;95794.66;5051993;28;20190;-86
2024/03/24 01:16:11;;;;;;;6.00;5.17;;;;;;;5.70;68.63;95783.28;5050507;28;20225;-85
2024/03/24 01:18:37;;;;;;;6.83;5.10;;;;;;;5.66;68.93;95787.53;5052409;28;20237;-86
2024/03/24 01:21:06;;;;;;;5.10;4.47;;;;;;;5.75;68.81;95782.44;5052683;28;20237;-86
2024/03/24 01:23:32;;;;;;;5.53;4.80;;;;;;;5.93;67.06;95784.47;5051275;28;20206;-86
2024/03/24 01:25:59;;;;;;;13.37;4.80;;;;;;;5.53;67.04;95732.69;5052294;28;20202;-85
2024/03/24 01:28:27;;;;;;;4.97;4.57;;;;;;;5.88;67.73;95769.41;5052674;28;20197;-86
2024/03/24 01:30:57;;;;;;;4.83;4.40;;;;;;;5.64;68.85;95776.44;5050256;28;20198;-85
2024/03/24 01:33:23;;;;;;;6.17;4.90;;;;;;;5.83;68.38;95774.72;5052027;28;20336;-85
2024/03/24 01:35:50;;;;;;;8.57;4.50;;;;;;;5.92;67.67;95772.28;5051868;28;20672;-84
2024/03/24 01:38:16;;;;;;;6.33;5.27;;;;;;;5.71;68.11;95768.22;5052317;28;20676;-85
2024/03/24 01:41:12;;;;;;;7.33;4.90;;;;;;;5.52;68.62;95754.88;5052031;28;20217;-84
2024/03/24 01:43:44;;;;;;;7.77;4.90;;;;;;;5.81;68.00;95774.22;5032892;28;20608;-84
2024/03/24 01:46:12;;;;;;;5.20;4.70;;;;;;;5.61;68.33;95756.66;5031605;28;20688;-85
2024/03/24 01:48:38;;;;;;;4.73;4.23;;;;;;;5.18;70.42;95755.59;5031700;28;20209;-85
2024/03/24 01:51:11;;;;;;;5.20;4.70;;;;;;;5.39;70.74;95741.22;5031630;28;20202;-84
2024/03/24 01:53:37;;;;;;;5.07;4.57;;;;;;;5.52;69.32;95765.44;5032560;28;20704;-85
2024/03/24 01:56:05;;;;;;;4.43;3.93;;;;;;;5.72;69.44;95764.50;5031625;28;20233;-84
2024/03/24 01:58:33;;;;;;;5.23;4.73;;;;;;;5.59;69.24;95736.88;5032319;28;20297;-85
2024/03/24 02:01:03;;;;;;;5.20;4.70;;;;;;;5.35;69.46;95749.97;5034297;28;20589;-84
2024/03/24 02:03:29;;;;;;;4.80;4.37;;;;;;;5.31;69.97;95755.00;5051833;28;20205;-86
2024/03/24 02:06:03;;;;;;;4.80;4.10;;;;;;;5.14;70.48;95747.41;5051513;28;20718;-86
2024/03/24 02:08:30;;;;;;;8.07;5.07;;;;;;;5.36;69.95;95756.81;5051767;28;20202;-86
2024/03/24 02:10:59;;;;;;;4.53;4.13;;;;;;;5.32;68.98;95756.56;5051407;28;20679;-85
2024/03/24 02:13:25;;;;;;;4.63;4.20;;;;;;;5.11;69.89;95755.09;5052938;28;20671;-85
2024/03/24 02:15:53;;;;;;;5.17;4.13;;;;;;;5.05;70.17;95764.88;5055439;28;20216;-85
2024/03/24 02:18:21;;;;;;;5.63;4.50;;;;;;;5.13;70.02;95745.06;5055989;28;20263;-85
2024/03/24 02:20:50;;;;;;;4.87;4.37;;;;;;;5.23;69.57;95755.56;5055608;28;20206;-85
2024/03/24 02:23:18;;;;;;;5.80;4.63;;;;;;;5.22;69.93;95759.25;5055634;28;20256;-85
2024/03/24 02:25:45;;;;;;;5.37;4.67;;;;;;;5.00;71.40;95737.75;5055481;28;20212;-85
2024/03/24 02:28:11;;;;;;;6.90;4.67;;;;;;;5.05;71.66;95751.69;5054443;28;20699;-85
2024/03/24 02:30:37;;;;;;;5.63;5.03;;;;;;;5.21;70.91;95741.84;5053300;28;20229;-86
2024/03/24 02:33:04;;;;;;;5.33;4.83;;;;;;;5.11;70.47;95728.72;5055791;28;20220;-85
2024/03/24 02:35:34;;;;;;;6.43;4.90;;;;;;;5.48;68.55;95736.16;5054033;28;20279;-86
2024/03/24 02:38:15;;;;;;;5.40;4.90;;;;;;;5.36;67.96;95733.06;5055242;28;20240;-86
2024/03/24 02:40:52;;;;;;;6.43;5.27;;;;;;;5.30;68.02;95723.59;5052506;28;20271;-85
2024/03/24 02:43:21;;;;;;;7.87;4.47;;;;;;;5.27;69.16;95732.88;5040330;28;20198;-86
2024/03/24 02:46:02;;;;;;;4.83;4.43;;;;;;;5.03;69.90;95729.28;5034867;28;20198;-85
2024/03/24 02:48:32;;;;;;;6.13;4.63;;;;;;;5.04;69.74;95731.66;5035125;28;20661;-85
2024/03/24 02:50:59;;;;;;;4.50;4.07;;;;;;;5.11;69.41;95728.72;5034653;28;20237;-86
2024/03/24 02:53:26;;;;;;;6.73;5.10;;;;;;;5.13;68.86;95710.78;5045597;28;20202;-85
2024/03/24 02:55:55;;;;;;;7.27;4.53;;;;;;;5.19;68.54;95717.63;5054039;28;20221;-85
2024/03/24 02:58:21;;;;;;;5.60;5.00;;;;;;;5.17;69.69;95708.38;5054014;28;20666;-85
2024/03/24 03:00:48;;;;;;;7.43;5.57;;;;;;;4.65;71.33;95706.00;5054385;28;20202;-85
2024/03/24 03:03:17;;;;;;;5.10;4.60;;;;;;;4.68;71.19;95706.50;5054806;28;20209;-85
2024/03/24 03:05:49;;;;;;;4.87;4.03;;;;;;;4.64;70.86;95719.44;5054436;28;20206;-85
2024/03/24 03:08:15;;;;;;;5.77;5.17;;;;;;;4.17;71.10;95658.19;5053567;28;20204;-85
2024/03/24 03:10:43;;;;;;;6.53;4.60;;;;;;;4.31;70.52;95652.38;5054522;28;20202;-86
2024/03/24 03:13:10;;;;;;;3.97;3.57;;;;;;;4.64;70.04;95693.84;5054760;28;20222;-85
2024/03/24 03:15:37;;;;;;;4.87;4.43;;;;;;;4.50;70.42;95692.88;5054457;28;20194;-85
2024/03/24 03:18:07;;;;;;;7.40;4.63;;;;;;;4.20;70.85;95669.25;5041704;28;20206;-85
2024/03/24 03:20:34;;;;;;;7.03;5.50;;;;;;;4.62;71.11;95703.91;5039737;28;20193;-84
2024/03/24 03:23:03;;;;;;;5.97;5.27;;;;;;;4.58;70.85;95705.50;5054858;28;20202;-84
2024/03/24 03:25:30;;;;;;;5.87;4.80;;;;;;;4.81;69.50;95696.19;5040125;28;20199;-84
2024/03/24 03:27:57;;;;;;;7.07;5.13;;;;;;;4.43;69.18;95646.78;5033894;28;20285;-85
2024/03/24 03:30:25;;;;;;;5.20;4.67;;;;;;;4.64;68.48;95672.00;5032847;28;20257;-84
2024/03/24 03:32:51;;;;;;;5.63;4.63;;;;;;;4.92;69.07;95694.28;5034169;28;20194;-84
2024/03/24 03:35:18;;;;;;;4.83;4.27;;;;;;;4.94;68.45;95700.06;5034622;28;20209;-85
2024/03/24 03:37:44;;;;;;;5.50;4.93;;;;;;;4.83;69.00;95688.78;5032638;28;20755;-84
2024/03/24 03:40:12;;;;;;;6.70;4.40;;;;;;;4.76;69.86;95690.13;5033156;28;20211;-84
2024/03/24 03:42:38;;;;;;;5.67;5.00;;;;;;;4.66;69.94;95698.88;5034350;28;20194;-84
2024/03/24 03:45:06;;;;;;;5.10;4.60;;;;;;;4.53;70.82;95683.63;5034240;28;20659;-84
2024/03/24 03:47:36;;;;;;;7.50;4.00;;;;;;;4.47;70.68;95687.34;5033951;28;20217;-85
2024/03/24 03:50:03;;;;;;;5.10;4.30;;;;;;;4.57;70.21;95701.28;5034137;28;20213;-85
2024/03/24 03:52:31;;;;;;;4.83;4.43;;;;;;;4.31;70.90;95652.38;5037547;28;20193;-84
2024/03/24 03:55:00;;;;;;;4.30;3.90;;;;;;;4.56;70.01;95686.50;5053605;28;20206;-84
2024/03/24 03:57:28;;;;;;;4.20;3.73;;;;;;;4.52;70.38;95682.06;5052986;28;20312;-84
2024/03/24 03:59:57;;;;;;;5.67;4.23;;;;;;;4.52;70.12;95640.69;5053513;28;20264;-85
2024/03/24 04:02:23;;;;;;;4.67;4.20;;;;;;;4.78;69.28;95678.25;5051376;28;20237;-85
2024/03/24 04:04:52;;;;;;;4.90;4.27;;;;;;;4.79;69.30;95679.03;5033854;28;20203;-84
2024/03/24 04:07:18;;;;;;;5.90;4.77;;;;;;;4.61;69.47;95652.25;5033392;28;20206;-85
2024/03/24 04:09:45;;;;;;;6.03;4.07;;;;;;;4.69;69.71;95666.72;5033681;28;20207;-85
2024/03/24 04:12:11;;;;;;;3.83;3.53;;;;;;;4.74;69.87;95687.00;5045640;28;20233;-85
2024/03/24 04:14:38;;;;;;;5.07;4.47;;;;;;;4.81;70.35;95669.81;5053265;28;20233;-83
2024/03/24 04:17:11;;;;;;;5.53;4.20;;;;;;;4.85;71.21;95680.59;5053042;28;20722;-85
2024/03/24 04:19:40;;;;;;;4.67;4.20;;;;;;;4.94;70.29;95688.72;5053060;28;20668;-85
2024/03/24 04:22:08;;;;;;;4.30;3.90;;;;;;;4.82;70.94;95691.69;5053359;28;20209;-85
2024/03/24 04:24:35;;;;;;;4.53;4.13;;;;;;;4.75;70.33;95691.19;5053355;28;20672;-84
2024/03/24 04:27:02;;;;;;;5.90;3.73;;;;;;;4.54;70.92;95686.00;5053036;28;20202;-85
2024/03/24 04:29:32;;;;;;;5.63;4.83;;;;;;;4.53;71.10;95692.34;5053232;28;20673;-85
2024/03/24 04:32:05;;;;;;;5.90;4.40;;;;;;;4.51;71.72;95697.09;5053567;28;20606;-85
2024/03/24 04:34:32;;;;;;;4.40;4.00;;;;;;;4.78;70.23;95691.44;5032955;28;20206;-85
2024/03/24 04:36:59;;;;;;;5.57;4.50;;;;;;;4.78;69.89;95694.06;5032143;28;20233;-85
2024/03/24 04:39:30;;;;;;;6.03;5.10;;;;;;;4.72;68.78;95681.97;5032897;28;20213;-85
2024/03/24 04:41:57;;;;;;;17.23;11.80;;;;;;;4.84;69.15;95687.72;5032936;28;20221;-85
2024/03/24 04:44:27;;;;;;;13.90;11.67;;;;;;;4.82;69.47;95689.06;5033402;28;20194;-82
2024/03/24 04:46:54;;;;;;;20.13;12.77;;;;;;;4.74;69.62;95698.31;5050343;28;20194;-81
2024/03/24 04:49:20;;;;;;;11.37;9.57;;;;;;;4.65;71.23;95697.31;5051883;28;20241;-81
2024/03/24 04:51:47;;;;;;;9.03;7.63;;;;;;;4.45;70.64;95686.81;5048624;28;20197;-87
2024/03/24 04:54:13;;;;;;;6.27;5.57;;;;;;;4.63;70.86;95700.19;5052503;28;20205;-82
2024/03/24 04:56:41;;;;;;;5.87;5.23;;;;;;;4.75;70.20;95701.72;5052365;28;20221;-81
2024/03/24 04:59:08;;;;;;;6.77;5.70;;;;;;;4.84;70.25;95687.72;5051141;28;20225;-82
2024/03/24 05:01:34;;;;;;;6.80;4.57;;;;;;;4.76;70.26;95685.66;5052413;28;20680;-84
2024/03/24 05:04:01;;;;;;;220.10;87.37;;;;;;;4.78;69.67;95680.13;5052942;28;20197;-83
2024/03/24 05:06:28;;;;;;;46.13;27.03;;;;;;;4.76;70.07;95661.13;5052297;28;20684;-82
2024/03/24 05:08:54;;;;;;;25.23;16.33;;;;;;;4.85;70.50;95675.34;5052463;28;20194;-83
2024/03/24 05:11:22;;;;;;;12.90;10.90;;;;;;;4.78;70.86;95680.13;5053210;28;20197;-84
2024/03/24 05:13:49;;;;;;;13.03;9.07;;;;;;;4.61;71.85;95664.66;5052258;28;20204;-84
2024/03/24 05:16:17;;;;;;;19.93;11.80;;;;;;;4.87;71.72;95686.38;5052725;28;20222;-84
2024/03/24 05:18:43;;;;;;;7.30;6.30;;;;;;;4.96;69.60;95671.59;5052597;28;20193;-83
2024/03/24 05:21:10;;;;;;;8.33;5.47;;;;;;;5.13;69.21;95692.31;5049703;28;20687;-84
2024/03/24 05:23:36;;;;;;;5.70;5.10;;;;;;;5.11;69.10;95697.06;5048598;28;20197;-83
2024/03/24 05:26:04;;;;;;;6.20;5.60;;;;;;;5.15;69.65;95700.75;5036377;28;20226;-83
2024/03/24 05:28:30;;;;;;;29.93;15.30;;;;;;;5.30;69.26;95705.13;5036721;28;20650;-86
2024/03/24 05:30:58;;;;;;;27.03;15.47;;;;;;;5.22;69.52;95697.78;5050723;28;20196;-84
2024/03/24 05:33:24;;;;;;;13.93;8.67;;;;;;;5.29;67.12;95666.63;5032396;28;20629;-83
2024/03/24 05:36:01;;;;;;;14.83;8.77;;;;;;;5.40;67.08;95695.31;5034492;28;20296;-87
2024/03/24 05:38:28;;;;;;;8.37;6.23;;;;;;;5.57;66.97;95691.47;5051906;28;20204;-86
2024/03/24 05:40:58;;;;;;;14.57;9.93;;;;;;;5.72;67.18;95687.94;5051806;28;20197;-86
2024/03/24 05:43:24;;;;;;;7.00;6.30;;;;;;;5.64;67.83;95671.63;5051814;28;20665;-83
2024/03/24 05:45:54;;;;;;;7.57;5.87;;;;;;;5.73;67.83;95711.44;5033221;28;20260;-85
2024/03/24 05:48:21;;;;;;;7.77;6.10;;;;;;;5.74;66.95;95689.25;5043543;28;20253;-85
2024/03/24 05:50:57;;;;;;;7.93;6.37;;;;;;;5.82;66.89;95709.78;5039209;28;20247;-86
2024/03/24 05:53:22;;;;;;;9.77;8.33;;;;;;;5.69;66.17;95673.44;5038240;28;20217;-86
2024/03/24 05:55:50;;;;;;;9.37;7.10;;;;;;;6.07;64.74;95695.56;5047036;28;20669;-86
2024/03/24 05:58:16;;;;;;;8.17;5.93;;;;;;;6.16;65.17;95694.97;5045937;28;20726;-85
2024/03/24 06:00:43;;;;;;;6.77;6.07;;;;;;;6.10;64.20;95699.53;5042409;28;20198;-85
2024/03/24 06:03:09;;;;;;;18.63;16.70;;;;;;;6.01;64.66;95686.13;5045477;28;20288;-85
2024/03/24 06:05:39;;;;;;;18.90;12.93;;;;;;;6.26;66.32;95700.16;5038305;28;20264;-84
2024/03/24 06:08:05;;;;;;;10.63;9.20;;;;;;;6.46;67.67;95692.00;5049013;28;20208;-84
2024/03/24 06:10:32;;;;;;;11.37;10.10;;;;;;;6.90;66.62;95690.19;5042249;28;20197;-83
2024/03/24 06:12:58;;;;;;;9.83;8.17;;;;;;;6.92;66.12;95677.44;5047754;28;20209;-85
2024/03/24 06:15:27;;;;;;;7.63;6.57;;;;;;;7.18;64.89;95675.25;5045861;28;20194;-83
2024/03/24 06:17:55;;;;;;;8.07;6.70;;;;;;;7.47;63.15;95683.84;5042991;28;20316;-84
2024/03/24 06:20:23;;;;;;;5.87;5.17;;;;;;;7.54;61.42;95680.81;5045721;28;20748;-85
2024/03/24 06:22:51;;;;;;;5.47;4.93;;;;;;;7.91;60.50;95685.25;5051286;28;20236;-84
2024/03/24 06:25:18;;;;;;;9.30;4.70;;;;;;;8.01;59.86;95677.09;5049685;28;20234;-84
2024/03/24 06:27:44;;;;;;;5.23;4.20;;;;;;;7.81;58.73;95696.78;5051002;28;20202;-85
2024/03/24 06:30:12;;;;;;;4.73;4.23;;;;;;;7.66;58.81;95696.25;5051657;28;20202;-83
2024/03/24 06:32:37;;;;;;;4.63;4.13;;;;;;;7.79;58.98;95695.53;5049891;28;20281;-83
2024/03/24 06:35:06;;;;;;;4.20;3.80;;;;;;;7.98;57.82;95690.19;5050838;28;20289;-82
2024/03/24 06:37:31;;;;;;;6.33;4.00;;;;;;;8.11;56.70;95693.94;5037103;28;20237;-83
2024/03/24 06:40:00;;;;;;;6.43;5.03;;;;;;;8.17;56.92;95708.66;5031654;28;20203;-80
2024/03/24 06:42:26;;;;;;;8.30;5.80;;;;;;;8.37;56.59;95688.97;5031666;28;20225;-80
2024/03/24 06:44:56;;;;;;;6.20;5.60;;;;;;;8.69;55.25;95688.13;5029410;28;20190;-81
2024/03/24 06:47:22;;;;;;;8.97;6.33;;;;;;;8.94;54.48;95676.97;5035413;28;20194;-81
2024/03/24 06:49:49;;;;;;;7.50;5.73;;;;;;;9.35;53.11;95673.44;5051108;28;20200;-80
2024/03/24 06:52:14;;;;;;;9.10;6.70;;;;;;;9.60;53.38;95673.94;5049885;28;20256;-81
2024/03/24 06:54:44;;;;;;;7.57;6.53;;;;;;;9.98;52.25;95679.66;5044475;28;20198;-80
2024/03/24 06:57:11;;;;;;;10.63;5.30;;;;;;;10.00;52.30;95688.91;5029846;28;20222;-80
2024/03/24 06:59:38;;;;;;;5.87;4.70;;;;;;;10.35;50.66;95681.13;5041667;28;20225;-80
2024/03/24 07:02:04;;;;;;;8.13;5.70;;;;;;;10.54;49.42;95678.25;5051067;28;20202;-77
2024/03/24 07:04:31;;;;;;;6.07;4.83;;;;;;;10.81;48.89;95673.78;5053514;28;20194;-82
2024/03/24 07:06:58;;;;;;;7.33;3.80;;;;;;;10.82;48.39;95680.69;5053814;28;20194;-83
2024/03/24 07:09:25;;;;;;;4.13;3.73;;;;;;;10.76;48.64;95672.03;5054606;28;20206;-84
2024/03/24 07:11:54;;;;;;;5.43;3.93;;;;;;;11.00;48.62;95668.97;5052984;28;20569;-84
2024/03/24 07:14:22;;;;;;;3.73;3.43;;;;;;;10.67;48.63;95656.06;5053865;28;20225;-83
2024/03/24 07:16:48;;;;;;;3.27;2.97;;;;;;;10.90;48.09;95647.97;5053561;28;20275;-83
2024/03/24 07:19:15;;;;;;;3.20;2.90;;;;;;;11.13;48.17;95661.94;5054574;28;20205;-83
2024/03/24 07:21:41;;;;;;;3.70;3.13;;;;;;;10.97;48.01;95627.00;5054690;28;20743;-82
2024/03/24 07:24:08;;;;;;;3.33;3.03;;;;;;;11.31;47.26;95668.84;5054329;28;20209;-82
2024/03/24 07:26:34;;;;;;;4.13;2.90;;;;;;;11.38;46.66;95671.81;5054236;28;20198;-82
2024/03/24 07:29:01;;;;;;;6.17;3.07;;;;;;;11.51;46.83;95670.13;5054475;28;20198;-82
2024/03/24 07:31:28;;;;;;;3.27;2.73;;;;;;;11.08;46.57;95646.91;5052775;28;20198;-84
2024/03/24 07:33:56;;;;;;;4.60;3.07;;;;;;;11.25;46.82;95646.91;5054561;28;20223;-84
2024/03/24 07:36:22;;;;;;;3.47;3.20;;;;;;;11.66;46.16;95674.97;5044680;28;20336;-84
2024/03/24 07:38:49;;;;;;;4.50;4.10;;;;;;;11.90;45.24;95669.16;5045015;28;20237;-84
2024/03/24 07:41:17;;;;;;;7.43;4.93;;;;;;;11.95;45.78;95674.31;5034535;28;20285;-83
2024/03/24 07:43:44;;;;;;;10.00;7.43;;;;;;;11.64;46.14;95668.38;5033917;28;20206;-78
2024/03/24 07:46:09;;;;;;;4.43;3.57;;;;;;;11.64;45.14;95663.03;5034457;28;20194;-78
2024/03/24 07:48:37;;;;;;;3.50;3.20;;;;;;;11.89;46.38;95670.25;5034205;28;20579;-78
2024/03/24 07:51:04;;;;;;;4.70;3.23;;;;;;;11.85;46.15;95666.66;5034006;28;20662;-77
2024/03/24 07:53:31;;;;;;;5.90;4.57;;;;;;;11.75;49.41;95673.06;5034208;28;20237;-78
2024/03/24 07:55:56;;;;;;;5.70;5.20;;;;;;;11.39;51.72;95670.75;5034230;28;20210;-78
2024/03/24 07:58:23;;;;;;;7.50;4.93;;;;;;;11.60;51.76;95670.09;5033682;28;20230;-78
2024/03/24 08:00:50;;;;;;;10.80;5.00;;;;;;;11.52;51.81;95655.69;5033620;28;20205;-78
2024/03/24 08:03:17;;;;;;;6.60;5.80;;;;;;;11.70;52.15;95672.47;5034339;28;20198;-78
2024/03/24 08:05:44;;;;;;;7.33;5.70;;;;;;;11.99;51.03;95677.13;5033996;28;20203;-78
2024/03/24 08:08:11;;;;;;;6.53;5.57;;;;;;;11.94;51.49;95679.97;5033494;28;20293;-78
2024/03/24 08:10:37;;;;;;;6.50;5.27;;;;;;;11.82;52.29;95687.81;5033806;28;21230;-77
2024/03/24 08:13:04;;;;;;;8.87;5.50;;;;;;;11.78;51.42;95686.88;5031602;28;20617;-77
2024/03/24 08:15:30;;;;;;;9.07;8.00;;;;;;;11.65;52.33;95669.94;5033441;28;20209;-77
2024/03/24 08:17:56;;;;;;;9.87;6.40;;;;;;;11.93;51.21;95681.09;5033329;28;20222;-77
2024/03/24 08:20:24;;;;;;;6.20;5.60;;;;;;;12.30;50.54;95673.44;5033513;28;20619;-77
2024/03/24 08:22:53;;;;;;;5.43;4.93;;;;;;;12.62;48.56;95672.06;5033568;28;20214;-77
2024/03/24 08:25:18;;;;;;;12.57;8.70;;;;;;;12.73;47.74;95674.03;5033193;28;20199;-77
2024/03/24 08:27:45;;;;;;;140.70;84.17;;;;;;;13.17;49.05;95668.47;5033883;28;20201;-77
2024/03/24 08:30:11;;;;;;;275.77;172.13;;;;;;;13.36;49.42;95663.50;5033676;28;20199;-76
2024/03/24 08:32:38;;;;;;;86.73;54.83;;;;;;;13.43;48.69;95669.09;5040905;28;20225;-77
2024/03/24 08:35:04;;;;;;;68.77;45.73;;;;;;;13.31;47.68;95660.22;5051951;28;20194;-76
2024/03/24 08:37:31;;;;;;;158.63;92.37;;;;;;;13.37;48.96;95645.56;5051917;28;20684;-77
2024/03/24 08:39:58;;;;;;;168.60;102.43;;;;;;;14.07;48.13;95659.88;5051610;28;20202;-76
2024/03/24 08:42:26;;;;;;;136.57;92.93;;;;;;;14.48;47.47;95652.00;5052108;28;20673;-78
2024/03/24 08:44:52;;;;;;;88.27;54.57;;;;;;;14.69;45.83;95639.34;5053106;28;20236;-78
2024/03/24 08:47:18;;;;;;;21.63;16.50;;;;;;;14.82;45.02;95648.91;5052941;28;20237;-76
2024/03/24 08:49:44;;;;;;;9.70;7.97;;;;;;;14.38;45.72;95651.34;5052942;28;20198;-76
2024/03/24 08:52:11;;;;;;;250.87;166.00;;;;;;;14.33;47.06;95626.69;5052743;28;20206;-76
2024/03/24 08:54:37;;;;;;;118.67;79.47;;;;;;;15.39;45.86;95642.56;5053089;28;20200;-76
2024/03/24 08:57:05;;;;;;;187.87;109.90;;;;;;;15.49;43.74;95632.47;5052723;28;20218;-76
2024/03/24 08:59:31;;;;;;;103.27;58.23;;;;;;;16.15;42.82;95629.31;5053280;28;20222;-75
2024/03/24 09:01:58;;;;;;;80.40;54.03;;;;;;;15.83;43.68;95634.59;5052461;28;20198;-75
2024/03/24 09:04:23;;;;;;;91.43;53.10;;;;;;;16.28;43.01;95632.69;5048182;28;20209;-78
2024/03/24 09:06:50;;;;;;;70.50;40.10;;;;;;;16.30;42.91;95625.06;5038517;28;20203;-75
2024/03/24 09:09:16;;;;;;;22.03;15.53;;;;;;;15.99;42.29;95618.56;5047049;28;20688;-74
2024/03/24 09:11:43;;;;;;;23.73;13.93;;;;;;;16.31;43.16;95621.28;5052188;28;20196;-75
2024/03/24 09:14:10;;;;;;;157.93;87.90;;;;;;;16.83;43.09;95609.47;5051152;28;20199;-75
2024/03/24 09:16:37;;;;;;;34.83;22.20;;;;;;;16.86;41.58;95614.91;5051531;28;20202;-75
2024/03/24 09:19:02;;;;;;;24.97;14.87;;;;;;;16.84;41.35;95602.94;5043592;28;20265;-75
2024/03/24 09:21:31;;;;;;;79.70;41.80;;;;;;;17.15;41.92;95604.78;5051809;28;20200;-75
2024/03/24 09:23:57;;;;;;;100.00;55.83;;;;;;;17.58;41.00;95608.38;5036480;28;20210;-75
2024/03/24 09:26:25;;;;;;;12.07;9.80;;;;;;;16.66;42.52;95604.44;5032010;28;20199;-75
2024/03/24 09:28:53;;;;;;;44.93;26.43;;;;;;;17.57;41.42;95610.25;5031917;28;20228;-75
2024/03/24 09:31:21;;;;;;;21.40;14.07;;;;;;;17.19;40.98;95602.16;5045567;28;20200;-75
2024/03/24 09:33:47;;;;;;;11.37;9.00;;;;;;;17.30;40.96;95600.47;5051383;28;20205;-75
2024/03/24 09:36:16;;;;;;;9.43;6.47;;;;;;;17.56;40.61;95603.31;5033137;28;20260;-76
2024/03/24 09:38:42;;;;;;;6.97;4.63;;;;;;;17.64;39.21;95585.41;5031171;28;20307;-75
2024/03/24 09:41:09;;;;;;;5.70;4.80;;;;;;;18.32;38.12;95595.50;5030988;28;20198;-75
2024/03/24 09:43:35;;;;;;;5.27;4.77;;;;;;;17.01;39.67;95591.06;5030830;28;20214;-75
2024/03/24 09:46:02;;;;;;;5.47;4.97;;;;;;;16.95;40.62;95581.69;5048468;28;20200;-76
2024/03/24 09:48:32;;;;;;;6.47;5.70;;;;;;;16.90;40.15;95587.34;5050557;28;20200;-76
2024/03/24 09:51:02;;;;;;;5.77;5.17;;;;;;;17.65;39.39;95583.47;5050037;28;20202;-76
2024/03/24 09:53:32;;;;;;;7.67;4.97;;;;;;;17.68;38.77;95585.47;5050245;28;20206;-76
2024/03/24 09:56:01;;;;;;;9.50;6.03;;;;;;;17.80;39.21;95580.72;5049850;28;20232;-76
2024/03/24 09:58:27;;;;;;;6.37;5.50;;;;;;;18.07;38.42;95578.13;5049457;28;20236;-75
2024/03/24 10:00:54;;;;;;;5.57;4.80;;;;;;;17.37;39.58;95571.03;5049707;28;20248;-76
2024/03/24 10:03:20;;;;;;;6.77;4.77;;;;;;;17.23;39.55;95563.47;5050948;28;20204;-76
2024/03/24 10:05:49;;;;;;;7.00;4.20;;;;;;;17.72;39.01;95535.94;5049926;28;20212;-75
2024/03/24 10:08:14;;;;;;;4.90;4.40;;;;;;;17.89;38.46;95552.78;5050888;28;20208;-76
2024/03/24 10:10:41;;;;;;;5.03;4.30;;;;;;;18.14;37.99;95551.31;5050225;28;20201;-76
2024/03/24 10:13:08;;;;;;;6.00;4.27;;;;;;;18.11;37.56;95551.25;5050180;28;20198;-76
2024/03/24 10:15:34;;;;;;;4.60;4.20;;;;;;;18.65;36.77;95537.47;5050297;28;20198;-76
2024/03/24 10:18:03;;;;;;;6.60;4.07;;;;;;;17.96;37.33;95532.16;5050583;28;20232;-76
2024/03/24 10:20:30;;;;;;;7.70;4.40;;;;;;;17.86;38.47;95526.63;5050345;28;20202;-76
2024/03/24 10:22:58;;;;;;;5.53;4.60;;;;;;;17.55;39.17;95526.44;5050669;28;20225;-75
2024/03/24 10:25:26;;;;;;;8.40;4.83;;;;;;;17.90;39.07;95525.53;5050398;28;20205;-76
2024/03/24 10:27:55;;;;;;;4.87;4.37;;;;;;;18.35;38.77;95521.22;5050169;28;20201;-76
2024/03/24 10:30:22;;;;;;;6.10;4.80;;;;;;;18.53;37.81;95511.50;5049724;28;20273;-76
2024/03/24 10:32:48;;;;;;;6.57;4.33;;;;;;;18.57;37.53;95512.31;5040795;28;20195;-76
2024/03/24 10:35:15;;;;;;;7.60;4.33;;;;;;;18.24;37.09;95478.00;5034107;28;20197;-76
2024/03/24 10:37:42;;;;;;;4.93;4.53;;;;;;;17.96;38.57;95499.84;5054162;28;20688;-75
2024/03/24 10:40:12;;;;;;;8.03;5.13;;;;;;;18.05;37.36;95497.72;5050552;28;20190;-76
2024/03/24 10:42:45;;;;;;;4.23;3.93;;;;;;;18.03;37.21;95485.72;5034687;28;20237;-75
2024/03/24 10:45:14;;;;;;;9.23;6.13;;;;;;;18.72;37.21;95480.22;5038971;28;20681;-76
2024/03/24 10:47:44;;;;;;;9.83;7.10;;;;;;;18.09;37.88;95500.47;5054020;28;20627;-76
2024/03/24 10:50:14;;;;;;;9.53;8.40;;;;;;;18.00;37.66;95494.53;5053913;28;20207;-76
2024/03/24 10:52:42;;;;;;;6.17;5.53;;;;;;;18.01;36.76;95483.41;5054456;28;20271;-75
2024/03/24 10:55:11;;;;;;;9.07;5.20;;;;;;;18.00;36.92;95492.59;5041028;28;20567;-75
2024/03/24 10:57:40;;;;;;;9.03;6.87;;;;;;;17.94;37.40;95479.81;5053477;28;20316;-75
2024/03/24 11:00:08;;;;;;;8.87;7.20;;;;;;;18.73;36.61;95468.28;5053762;28;20232;-75
2024/03/24 11:02:36;;;;;;;13.20;6.63;;;;;;;17.99;37.45;95474.13;5045682;28;20674;-75
2024/03/24 11:05:06;;;;;;;16.97;11.63;;;;;;;18.38;36.61;95468.56;5039790;28;20560;-75
2024/03/24 11:07:32;;;;;;;13.40;6.80;;;;;;;18.03;36.82;95464.19;5034458;28;20245;-75
2024/03/24 11:09:59;;;;;;;22.27;10.80;;;;;;;17.83;36.51;95448.13;5034612;28;20206;-75
2024/03/24 11:12:27;;;;;;;31.67;18.83;;;;;;;18.16;36.00;95440.53;5048350;28;20213;-75
2024/03/24 11:14:53;;;;;;;11.40;7.07;;;;;;;18.39;35.43;95422.41;5054397;28;20193;-75
2024/03/24 11:17:19;;;;;;;19.27;11.83;;;;;;;18.34;35.04;95436.19;5052471;28;20249;-75
2024/03/24 11:19:49;;;;;;;17.40;10.77;;;;;;;18.27;35.72;95431.44;5054456;28;20193;-75
2024/03/24 11:22:20;;;;;;;39.10;21.67;;;;;;;18.13;35.63;95425.13;5051786;28;20201;-76
2024/03/24 11:24:47;;;;;;;8.97;6.13;;;;;;;18.63;34.47;95421.16;5053943;28;20656;-75
2024/03/24 11:27:27;;;;;;;25.93;14.70;;;;;;;18.33;34.82;95429.25;5052632;28;20194;-75
2024/03/24 11:29:56;;;;;;;32.73;16.77;;;;;;;18.16;35.52;95413.59;5054634;28;20201;-75
2024/03/24 11:32:42;;;;;;;12.70;8.77;;;;;;;18.38;35.61;95411.97;5054460;28;20226;-75
2024/03/24 11:35:09;;;;;;;25.07;13.47;;;;;;;18.41;34.97;95419.34;5054204;28;20197;-75
2024/03/24 11:37:35;;;;;;;6.43;5.70;;;;;;;18.28;34.12;95403.41;5054101;28;20224;-75